createdAt,value
2018-08-08T00:01:39.412Z,6.27
2018-08-08T00:04:07.860Z,6.33
2018-08-08T00:06:36.318Z,6.63
2018-08-08T00:09:07.355Z,7.17
2018-08-08T00:11:35.756Z,6.67
2018-08-08T00:14:04.668Z,6.23
2018-08-08T00:16:33.084Z,6.47
2018-08-08T00:19:01.569Z,6.80
2018-08-08T00:21:30.004Z,7.10
2018-08-08T00:23:58.748Z,6.30
2018-08-08T00:26:27.232Z,6.53
2018-08-08T00:28:55.660Z,6.90
2018-08-08T00:31:24.390Z,6.30
2018-08-08T00:33:52.880Z,6.73
2018-08-08T00:36:21.792Z,6.87
2018-08-08T00:38:50.544Z,6.27
2018-08-08T00:41:18.978Z,6.60
2018-08-08T00:43:47.471Z,6.83
2018-08-08T00:46:15.933Z,7.53
2018-08-08T00:48:44.364Z,6.47
2018-08-08T00:51:12.836Z,6.60
2018-08-08T00:53:41.284Z,6.73
2018-08-08T00:56:09.708Z,6.80
2018-08-08T00:58:38.148Z,6.80
2018-08-08T01:01:06.609Z,6.27
2018-08-08T01:03:35.140Z,6.43
2018-08-08T01:06:03.578Z,6.23
2018-08-08T01:08:32.084Z,6.77
2018-08-08T01:11:00.503Z,6.60
2018-08-08T01:13:28.992Z,6.90
2018-08-08T01:15:57.427Z,6.83
2018-08-08T01:18:25.835Z,8.10
2018-08-08T01:20:54.291Z,7.70
2018-08-08T01:23:22.770Z,7.83
2018-08-08T01:25:51.211Z,7.47
2018-08-08T01:28:19.786Z,6.20
2018-08-08T01:30:48.260Z,5.93
2018-08-08T01:33:16.721Z,5.50
2018-08-08T01:35:45.160Z,5.23
2018-08-08T01:38:13.623Z,4.83
2018-08-08T01:40:42.070Z,4.37
2018-08-08T01:43:10.506Z,4.42
2018-08-08T01:45:39.025Z,4.50
2018-08-08T01:48:07.445Z,4.93
2018-08-08T01:50:35.880Z,4.33
2018-08-08T01:53:04.302Z,4.35
2018-08-08T01:55:32.746Z,4.85
2018-08-08T01:58:01.199Z,4.97
2018-08-08T02:00:29.675Z,4.85
2018-08-08T02:02:58.092Z,4.37
2018-08-08T02:05:26.569Z,4.62
2018-08-08T02:07:54.957Z,4.75
2018-08-08T02:10:23.879Z,4.83
2018-08-08T02:12:52.752Z,4.73
2018-08-08T02:15:21.167Z,4.30
2018-08-08T02:17:49.650Z,5.28
2018-08-08T02:20:18.128Z,4.70
2018-08-08T02:22:46.578Z,5.03
2018-08-08T02:25:16.295Z,4.53
2018-08-08T02:27:44.962Z,5.00
2018-08-08T02:30:17.762Z,5.00
2018-08-08T02:32:46.935Z,4.50
2018-08-08T02:35:17.491Z,4.83
2018-08-08T02:37:45.961Z,4.20
2018-08-08T02:40:14.456Z,4.93
2018-08-08T02:42:42.919Z,4.97
2018-08-08T02:45:16.695Z,4.55
2018-08-08T02:47:45.664Z,4.57
2018-08-08T02:50:15.812Z,4.97
2018-08-08T02:52:44.265Z,4.40
2018-08-08T02:55:13.419Z,4.83
2018-08-08T02:57:42.341Z,5.00
2018-08-08T03:00:12.829Z,4.97
2018-08-08T03:02:41.364Z,4.78
2018-08-08T03:05:11.081Z,4.87
2018-08-08T03:07:40.249Z,4.83
2018-08-08T03:10:11.191Z,4.67
2018-08-08T03:12:39.778Z,5.17
2018-08-08T03:15:10.824Z,4.90
2018-08-08T03:17:39.302Z,4.70
2018-08-08T03:20:09.092Z,5.00
2018-08-08T03:22:37.520Z,5.00
2018-08-08T03:25:07.895Z,5.40
2018-08-08T03:27:36.352Z,4.80
2018-08-08T03:30:06.614Z,5.20
2018-08-08T03:32:35.021Z,5.27
2018-08-08T03:35:03.495Z,5.37
2018-08-08T03:37:31.940Z,5.00
2018-08-08T03:40:00.384Z,5.33
2018-08-08T03:42:28.792Z,5.33
2018-08-08T03:44:57.240Z,4.43
2018-08-08T03:47:25.664Z,5.13
2018-08-08T03:49:54.072Z,4.50
2018-08-08T03:52:22.501Z,4.75
2018-08-08T03:54:50.953Z,4.60
2018-08-08T03:57:19.360Z,4.80
2018-08-08T03:59:47.808Z,5.07
2018-08-08T04:02:16.296Z,5.13
2018-08-08T04:04:44.672Z,5.53
2018-08-08T04:07:13.190Z,5.13
2018-08-08T04:09:41.576Z,5.07
2018-08-08T04:12:10.000Z,5.60
2018-08-08T04:14:38.594Z,5.83
2018-08-08T04:17:11.342Z,5.43
2018-08-08T04:19:39.627Z,5.63
2018-08-08T04:22:08.211Z,5.13
2018-08-08T04:24:36.604Z,5.70
2018-08-08T04:27:05.069Z,5.50
2018-08-08T04:29:33.468Z,5.50
2018-08-08T04:32:01.888Z,5.23
2018-08-08T04:34:30.300Z,5.03
2018-08-08T04:36:58.764Z,4.60
2018-08-08T04:39:27.189Z,5.03
2018-08-08T04:41:56.140Z,4.83
2018-08-08T04:44:24.845Z,5.03
2018-08-08T04:46:53.268Z,5.70
2018-08-08T04:49:21.736Z,7.80
2018-08-08T04:51:50.184Z,6.00
2018-08-08T04:54:18.643Z,6.07
2018-08-08T04:56:47.135Z,6.40
2018-08-08T04:59:15.590Z,7.27
2018-08-08T05:01:44.009Z,8.27
2018-08-08T05:04:12.420Z,7.80
2018-08-08T05:06:40.857Z,7.67
2018-08-08T05:09:11.392Z,7.47
2018-08-08T05:11:39.891Z,12.60
2018-08-08T05:14:08.869Z,7.10
2018-08-08T05:16:37.887Z,6.73
2018-08-08T05:19:07.697Z,7.27
2018-08-08T05:21:36.220Z,7.30
2018-08-08T05:24:05.065Z,6.13
2018-08-08T05:26:33.974Z,7.20
2018-08-08T05:29:02.428Z,6.33
2018-08-08T05:31:30.891Z,7.50
2018-08-08T05:33:59.363Z,7.40
2018-08-08T05:36:28.758Z,8.90
2018-08-08T05:38:57.136Z,7.47
2018-08-08T05:41:25.600Z,7.27
2018-08-08T05:43:54.038Z,10.40
2018-08-08T05:46:22.936Z,8.13
2018-08-08T05:48:51.356Z,7.10
2018-08-08T05:51:19.835Z,7.83
2018-08-08T05:53:48.313Z,8.40
2018-08-08T05:56:16.701Z,7.47
2018-08-08T05:58:45.144Z,7.47
2018-08-08T06:01:13.588Z,6.93
2018-08-08T06:03:42.120Z,6.90
2018-08-08T06:06:10.587Z,7.30
2018-08-08T06:08:39.080Z,7.03
2018-08-08T06:11:07.548Z,6.87
2018-08-08T06:13:36.096Z,6.50
2018-08-08T06:16:04.975Z,6.30
2018-08-08T06:18:33.786Z,6.03
2018-08-08T06:21:02.171Z,6.60
2018-08-08T06:23:30.659Z,6.33
2018-08-08T06:25:59.113Z,6.07
2018-08-08T06:28:27.585Z,6.57
2018-08-08T06:30:56.452Z,7.70
2018-08-08T06:33:24.892Z,7.30
2018-08-08T06:35:53.308Z,7.40
2018-08-08T06:38:21.775Z,6.90
2018-08-08T06:40:50.310Z,6.53
2018-08-08T06:43:18.799Z,6.67
2018-08-08T06:45:47.258Z,6.57
2018-08-08T06:48:15.661Z,6.63
2018-08-08T06:50:44.124Z,6.50
2018-08-08T06:53:12.532Z,5.70
2018-08-08T06:55:40.980Z,5.50
2018-08-08T06:58:09.420Z,5.77
2018-08-08T07:00:37.925Z,6.07
2018-08-08T07:03:06.765Z,5.90
2018-08-08T07:05:35.253Z,5.77
2018-08-08T07:08:03.694Z,5.73
2018-08-08T07:10:32.133Z,6.57
2018-08-08T07:13:00.680Z,5.23
2018-08-08T07:15:29.150Z,5.30
2018-08-08T07:18:04.029Z,5.33
2018-08-08T07:20:32.528Z,4.80
2018-08-08T07:23:01.029Z,4.90
2018-08-08T07:25:29.501Z,4.77
2018-08-08T07:27:57.969Z,5.13
2018-08-08T07:30:26.464Z,5.23
2018-08-08T07:32:55.030Z,4.53
2018-08-08T07:35:23.411Z,5.00
2018-08-08T07:37:51.872Z,4.03
2018-08-08T07:40:20.871Z,4.37
2018-08-08T07:42:49.448Z,3.87
2018-08-08T07:45:23.233Z,3.97
2018-08-08T07:47:51.776Z,4.37
2018-08-08T07:50:20.278Z,4.28
2018-08-08T07:52:48.739Z,3.92
2018-08-08T07:55:18.333Z,4.00
2018-08-08T07:57:46.798Z,4.10
2018-08-08T08:00:22.664Z,3.90
2018-08-08T08:02:51.896Z,3.67
2018-08-08T08:05:20.527Z,3.50
2018-08-08T08:07:49.935Z,3.50
2018-08-08T08:10:18.360Z,3.72
2018-08-08T08:12:46.788Z,4.25
2018-08-08T08:15:15.190Z,3.80
2018-08-08T08:17:44.086Z,3.92
2018-08-08T08:20:13.949Z,4.10
2018-08-08T08:22:43.260Z,4.12
2018-08-08T08:25:11.740Z,3.60
2018-08-08T08:27:40.868Z,3.60
2018-08-08T08:30:12.417Z,4.33
2018-08-08T08:32:41.277Z,4.30
2018-08-08T08:35:09.901Z,4.35
2018-08-08T08:37:38.437Z,4.73
2018-08-08T08:40:08.104Z,4.50
2018-08-08T08:42:36.582Z,4.75
2018-08-08T08:45:05.033Z,4.40
2018-08-08T08:47:33.535Z,4.85
2018-08-08T08:50:02.025Z,5.03
2018-08-08T08:52:30.373Z,4.80
2018-08-08T08:54:58.815Z,5.80
2018-08-08T08:57:27.264Z,6.08
2018-08-08T08:59:55.740Z,6.08
2018-08-08T09:02:24.209Z,5.92
2018-08-08T09:04:52.570Z,6.03
2018-08-08T09:07:21.103Z,5.92
2018-08-08T09:09:49.489Z,6.85
2018-08-08T09:12:18.101Z,7.10
2018-08-08T09:14:46.470Z,6.05
2018-08-08T09:17:14.885Z,5.10
2018-08-08T09:19:43.319Z,5.67
2018-08-08T09:22:11.761Z,6.25
2018-08-08T09:24:40.292Z,6.65
2018-08-08T09:27:08.732Z,6.28
2018-08-08T09:29:40.131Z,6.08
2018-08-08T09:32:08.540Z,6.55
2018-08-08T09:34:36.928Z,6.05
2018-08-08T09:37:05.325Z,6.60
2018-08-08T09:39:33.720Z,7.00
2018-08-08T09:42:02.100Z,6.40
2018-08-08T09:44:30.511Z,6.75
2018-08-08T09:46:58.992Z,7.37
2018-08-08T09:49:27.379Z,6.70
2018-08-08T09:51:55.780Z,7.00
2018-08-08T09:54:24.204Z,7.12
2018-08-08T09:56:52.652Z,7.37
2018-08-08T09:59:21.080Z,6.85
2018-08-08T10:01:54.856Z,7.03
2018-08-08T10:04:28.599Z,6.90
2018-08-08T10:06:57.203Z,7.37
2018-08-08T10:09:25.612Z,7.15
2018-08-08T10:11:54.029Z,7.20
2018-08-08T10:14:22.664Z,7.30
2018-08-08T10:16:51.749Z,7.03
2018-08-08T10:19:20.901Z,6.45
2018-08-08T10:21:49.296Z,6.47
2018-08-08T10:24:17.699Z,7.15
2018-08-08T10:26:46.469Z,7.05
2018-08-08T10:29:14.908Z,6.50
2018-08-08T10:31:43.376Z,7.03
2018-08-08T10:34:12.257Z,7.08
2018-08-08T10:36:40.743Z,6.67
2018-08-08T10:39:11.027Z,6.17
2018-08-08T10:41:39.449Z,5.90
2018-08-08T10:44:08.707Z,6.08
2018-08-08T10:46:37.185Z,6.08
2018-08-08T10:49:05.907Z,6.58
2018-08-08T10:51:34.336Z,5.78
2018-08-08T10:54:02.764Z,5.67
2018-08-08T10:56:31.223Z,5.95
2018-08-08T10:58:59.755Z,6.10
2018-08-08T11:01:28.615Z,5.80
2018-08-08T11:03:57.103Z,6.70
2018-08-08T11:06:25.561Z,6.20
2018-08-08T11:08:54.068Z,6.28
2018-08-08T11:11:22.551Z,6.10
2018-08-08T11:13:50.989Z,5.95
2018-08-08T11:16:19.396Z,6.47
2018-08-08T11:18:47.836Z,6.55
2018-08-08T11:21:16.238Z,6.28
2018-08-08T11:23:44.690Z,6.45
2018-08-08T11:26:13.149Z,7.08
2018-08-08T11:28:41.568Z,6.12
2018-08-08T11:31:10.005Z,6.55
2018-08-08T11:33:38.404Z,6.33
2018-08-08T11:36:06.945Z,7.00
2018-08-08T11:38:35.359Z,6.90
2018-08-08T11:41:04.864Z,7.28
2018-08-08T11:43:33.314Z,7.12
2018-08-08T11:46:01.754Z,7.65
2018-08-08T11:48:30.240Z,7.25
2018-08-08T11:50:58.695Z,7.15
2018-08-08T11:53:27.228Z,7.30
2018-08-08T11:55:55.690Z,7.97
2018-08-08T11:58:24.091Z,7.47
2018-08-08T12:00:52.500Z,6.92
2018-08-08T12:03:20.953Z,7.30
2018-08-08T12:05:49.417Z,7.35
2018-08-08T12:08:17.928Z,7.00
2018-08-08T12:10:46.354Z,7.05
2018-08-08T12:13:14.780Z,7.08
2018-08-08T12:15:43.216Z,7.45
2018-08-08T12:18:11.712Z,7.97
2018-08-08T12:20:40.531Z,8.18
2018-08-08T12:23:08.950Z,7.62
2018-08-08T12:25:37.518Z,6.72
2018-08-08T12:28:05.931Z,7.60
2018-08-08T12:30:34.404Z,6.53
2018-08-08T12:33:02.824Z,6.62
2018-08-08T12:35:31.430Z,7.05
2018-08-08T12:37:59.774Z,6.58
2018-08-08T12:40:28.247Z,6.30
2018-08-08T12:42:56.696Z,6.40
2018-08-08T12:45:25.107Z,6.22
2018-08-08T12:47:53.576Z,5.42
2018-08-08T12:50:22.018Z,5.70
2018-08-08T12:52:50.644Z,6.03
2018-08-08T12:55:19.132Z,5.45
2018-08-08T12:57:47.611Z,5.70
2018-08-08T13:00:16.081Z,5.40
2018-08-08T13:02:44.525Z,5.55
2018-08-08T13:05:13.031Z,5.87
2018-08-08T13:07:41.455Z,5.60
2018-08-08T13:10:09.885Z,4.85
2018-08-08T13:12:38.340Z,5.97
2018-08-08T13:15:07.899Z,4.33
2018-08-08T13:17:36.409Z,5.03
2018-08-08T13:20:05.532Z,4.83
2018-08-08T13:22:33.945Z,4.58
2018-08-08T13:25:02.420Z,4.15
2018-08-08T13:27:30.910Z,4.17
2018-08-08T13:29:59.370Z,4.30
2018-08-08T13:32:28.143Z,4.75
2018-08-08T13:34:56.599Z,4.50
2018-08-08T13:37:25.066Z,5.05
2018-08-08T13:39:53.502Z,4.97
2018-08-08T13:42:22.099Z,5.22
2018-08-08T13:44:50.638Z,4.35
2018-08-08T13:47:19.044Z,4.47
2018-08-08T13:49:47.464Z,5.45
2018-08-08T13:52:15.868Z,5.50
2018-08-08T13:54:44.280Z,5.30
2018-08-08T13:57:12.774Z,4.60
2018-08-08T13:59:41.253Z,6.12
2018-08-08T14:02:09.657Z,7.05
2018-08-08T14:04:38.096Z,5.78
2018-08-08T14:07:06.613Z,5.20
2018-08-08T14:09:35.052Z,5.83
2018-08-08T14:12:03.638Z,5.42
2018-08-08T14:14:32.439Z,5.60
2018-08-08T14:17:00.904Z,5.42
2018-08-08T14:19:29.429Z,5.40
2018-08-08T14:21:58.024Z,4.72
2018-08-08T14:24:26.523Z,5.87
2018-08-08T14:26:54.967Z,5.50
2018-08-08T14:29:23.471Z,5.30
2018-08-08T14:31:51.960Z,4.78
2018-08-08T14:34:20.360Z,5.35
2018-08-08T14:36:48.909Z,6.45
2018-08-08T14:39:17.380Z,5.70
2018-08-08T14:41:45.956Z,5.50
2018-08-08T14:44:14.416Z,5.47
2018-08-08T14:46:43.946Z,4.90
2018-08-08T14:49:12.458Z,4.72
2018-08-08T14:51:40.932Z,4.90
2018-08-08T14:54:09.380Z,5.30
2018-08-08T14:56:37.843Z,5.47
2018-08-08T14:59:06.296Z,5.10
2018-08-08T15:01:34.939Z,5.25
2018-08-08T15:04:03.531Z,5.33
2018-08-08T15:06:32.725Z,6.10
2018-08-08T15:09:02.177Z,5.25
2018-08-08T15:11:30.640Z,5.63
2018-08-08T15:13:59.110Z,5.60
2018-08-08T15:16:27.455Z,5.80
2018-08-08T15:18:55.900Z,5.15
2018-08-08T15:21:24.332Z,5.65
2018-08-08T15:23:52.756Z,6.03
2018-08-08T15:26:21.317Z,5.95
2018-08-08T15:28:49.730Z,5.22
2018-08-08T15:31:18.384Z,5.53
2018-08-08T15:33:46.612Z,5.80
2018-08-08T15:36:15.068Z,5.15
2018-08-08T15:38:43.580Z,5.80
2018-08-08T15:41:12.004Z,5.57
2018-08-08T15:43:40.452Z,4.73
2018-08-08T15:46:09.016Z,5.00
2018-08-08T15:48:37.509Z,5.30
2018-08-08T15:51:05.921Z,5.67
2018-08-08T15:53:34.396Z,6.00
2018-08-08T15:56:02.916Z,6.37
2018-08-08T15:58:31.327Z,5.93
2018-08-08T16:00:59.996Z,4.93
2018-08-08T16:03:28.409Z,4.95
2018-08-08T16:05:56.833Z,5.00
2018-08-08T16:08:25.317Z,4.97
2018-08-08T16:10:53.708Z,5.13
2018-08-08T16:13:22.200Z,4.73
2018-08-08T16:15:50.600Z,5.70
2018-08-08T16:18:19.013Z,5.00
2018-08-08T16:20:47.503Z,5.10
2018-08-08T16:23:15.937Z,4.53
2018-08-08T16:25:44.392Z,4.55
2018-08-08T16:28:12.872Z,3.93
2018-08-08T16:30:41.348Z,4.80
2018-08-08T16:33:09.780Z,5.10
2018-08-08T16:35:38.213Z,5.77
2018-08-08T16:38:07.120Z,4.58
2018-08-08T16:40:35.660Z,4.30
2018-08-08T16:43:04.183Z,4.27
2018-08-08T16:45:32.713Z,4.30
2018-08-08T16:48:01.454Z,4.03
2018-08-08T16:50:29.880Z,4.37
2018-08-08T16:52:58.260Z,5.22
2018-08-08T16:55:26.718Z,4.40
2018-08-08T16:57:55.104Z,4.70
2018-08-08T17:00:23.587Z,4.50
2018-08-08T17:02:52.008Z,4.42
2018-08-08T17:05:20.452Z,3.90
2018-08-08T17:07:48.881Z,4.20
2018-08-08T17:10:17.288Z,3.58
2018-08-08T17:12:45.671Z,4.08
2018-08-08T17:15:14.116Z,3.80
2018-08-08T17:17:42.513Z,4.10
2018-08-08T17:20:11.103Z,4.23
2018-08-08T17:22:39.584Z,4.20
2018-08-08T17:25:08.220Z,4.70
2018-08-08T17:27:36.641Z,4.90
2018-08-08T17:30:06.189Z,6.23
2018-08-08T17:32:34.697Z,4.60
2018-08-08T17:35:03.130Z,4.13
2018-08-08T17:37:31.597Z,3.60
2018-08-08T17:39:59.986Z,3.63
2018-08-08T17:42:28.433Z,4.37
2018-08-08T17:44:57.267Z,4.07
2018-08-08T17:47:25.679Z,3.77
2018-08-08T17:49:54.335Z,4.73
2018-08-08T17:52:22.748Z,3.90
2018-08-08T17:54:51.175Z,3.80
2018-08-08T17:57:19.592Z,4.00
2018-08-08T17:59:48.046Z,3.70
2018-08-08T18:02:16.461Z,6.13
2018-08-08T18:04:44.999Z,9.50
2018-08-08T18:07:13.383Z,6.90
2018-08-08T18:09:41.892Z,4.93
2018-08-08T18:12:10.360Z,3.90
2018-08-08T18:14:38.924Z,3.77
2018-08-08T18:17:07.346Z,4.00
2018-08-08T18:19:35.789Z,3.90
2018-08-08T18:22:04.453Z,4.13
2018-08-08T18:24:32.841Z,3.23
2018-08-08T18:27:01.319Z,3.30
2018-08-08T18:29:29.764Z,3.40
2018-08-08T18:31:58.215Z,3.30
2018-08-08T18:34:26.628Z,4.53
2018-08-08T18:36:55.084Z,3.20
2018-08-08T18:39:23.540Z,3.30
2018-08-08T18:41:52.044Z,3.07
2018-08-08T18:44:20.447Z,3.17
2018-08-08T18:46:49.128Z,3.47
2018-08-08T18:49:17.553Z,3.90
2018-08-08T18:51:45.998Z,3.27
2018-08-08T18:54:14.447Z,3.23
2018-08-08T18:56:42.848Z,4.17
2018-08-08T18:59:11.296Z,4.60
2018-08-08T19:01:39.792Z,3.70
2018-08-08T19:04:08.280Z,3.83
2018-08-08T19:06:36.778Z,3.40
2018-08-08T19:09:07.257Z,3.50
2018-08-08T19:11:35.665Z,3.20
2018-08-08T19:14:04.079Z,3.90
2018-08-08T19:16:32.521Z,3.97
2018-08-08T19:19:00.964Z,8.03
2018-08-08T19:21:29.788Z,3.30
2018-08-08T19:23:58.274Z,3.77
2018-08-08T19:26:26.847Z,5.27
2018-08-08T19:28:55.240Z,3.77
2018-08-08T19:31:23.706Z,3.67
2018-08-08T19:33:52.523Z,2.67
2018-08-08T19:36:20.970Z,4.00
2018-08-08T19:38:49.412Z,3.33
2018-08-08T19:41:17.869Z,4.00
2018-08-08T19:43:46.456Z,3.70
2018-08-08T19:46:14.929Z,3.07
2018-08-08T19:48:43.332Z,3.17
2018-08-08T19:51:11.840Z,3.40
2018-08-08T19:53:40.255Z,2.60
2018-08-08T19:56:08.726Z,2.73
2018-08-08T19:58:37.226Z,3.00
2018-08-08T20:01:05.748Z,3.10
2018-08-08T20:03:34.244Z,3.33
2018-08-08T20:06:02.708Z,3.23
2018-08-08T20:08:31.085Z,3.53
2018-08-08T20:10:59.505Z,2.90
2018-08-08T20:13:27.949Z,2.80
2018-08-08T20:15:57.724Z,3.77
2018-08-08T20:18:26.197Z,2.83
2018-08-08T20:20:55.424Z,2.90
2018-08-08T20:23:23.998Z,2.80
2018-08-08T20:25:52.475Z,3.00
2018-08-08T20:28:20.904Z,2.97
2018-08-08T20:30:50.264Z,3.00
2018-08-08T20:33:19.553Z,2.80
2018-08-08T20:35:47.997Z,2.70
2018-08-08T20:38:16.593Z,2.77
2018-08-08T20:40:45.040Z,2.50
2018-08-08T20:43:13.462Z,2.97
2018-08-08T20:45:42.653Z,3.07
2018-08-08T20:48:11.288Z,2.43
2018-08-08T20:50:40.472Z,2.30
2018-08-08T20:53:08.976Z,3.10
2018-08-08T20:55:38.732Z,2.30
2018-08-08T20:58:07.318Z,2.57
2018-08-08T21:00:35.752Z,2.60
2018-08-08T21:03:04.659Z,2.97
2018-08-08T21:05:33.075Z,2.47
2018-08-08T21:08:01.482Z,2.57
2018-08-08T21:10:29.936Z,2.80
2018-08-08T21:12:58.356Z,2.60
2018-08-08T21:15:26.760Z,2.73
2018-08-08T21:17:55.204Z,2.70
2018-08-08T21:20:23.645Z,2.37
2018-08-08T21:22:52.099Z,2.90
2018-08-08T21:25:20.677Z,2.87
2018-08-08T21:27:49.240Z,3.03
2018-08-08T21:30:17.830Z,2.60
2018-08-08T21:32:46.078Z,3.10
2018-08-08T21:35:14.523Z,3.50
2018-08-08T21:37:42.985Z,3.90
2018-08-08T21:40:11.385Z,4.40
2018-08-08T21:42:39.783Z,4.40
2018-08-08T21:45:08.246Z,3.70
2018-08-08T21:47:36.770Z,3.50
2018-08-08T21:50:06.072Z,3.10
2018-08-08T21:52:34.544Z,2.83
2018-08-08T21:55:14.360Z,3.10
2018-08-08T21:57:54.442Z,4.10
2018-08-08T22:00:34.172Z,6.53
2018-08-08T22:03:18.129Z,4.60
2018-08-08T22:05:57.924Z,4.03
2018-08-08T22:08:37.682Z,4.13
2018-08-08T22:11:19.428Z,3.90
2018-08-08T22:13:59.266Z,4.77
2018-08-08T22:16:39.074Z,5.60
2018-08-08T22:19:24.289Z,4.23
2018-08-08T22:21:53.512Z,3.37
2018-08-08T22:24:22.046Z,3.87
2018-08-08T22:26:50.452Z,3.10
2018-08-08T22:29:18.900Z,3.50
2018-08-08T22:31:47.361Z,3.73
2018-08-08T22:34:15.773Z,3.60
2018-08-08T22:36:44.193Z,3.43
2018-08-08T22:39:16.027Z,4.03
2018-08-08T22:41:44.580Z,4.37
2018-08-08T22:44:13.409Z,4.97
2018-08-08T22:46:41.824Z,5.20
2018-08-08T22:49:10.242Z,3.60
2018-08-08T22:51:38.741Z,3.10
2018-08-08T22:54:07.159Z,3.27
2018-08-08T22:56:35.635Z,3.87
2018-08-08T22:59:04.136Z,3.37
2018-08-08T23:01:32.580Z,3.33
2018-08-08T23:04:01.014Z,3.33
2018-08-08T23:06:30.755Z,3.03
2018-08-08T23:08:59.153Z,3.30
2018-08-08T23:11:27.565Z,3.30
2018-08-08T23:13:56.039Z,3.20
2018-08-08T23:16:24.504Z,3.07
2018-08-08T23:18:52.909Z,3.00
2018-08-08T23:21:21.274Z,2.83
2018-08-08T23:23:50.344Z,3.30
2018-08-08T23:26:18.821Z,3.23
2018-08-08T23:28:47.227Z,3.17
2018-08-08T23:31:15.640Z,3.13
2018-08-08T23:33:44.071Z,3.10
2018-08-08T23:36:12.478Z,3.23
2018-08-08T23:38:40.882Z,3.00
2018-08-08T23:41:09.330Z,3.30
2018-08-08T23:43:37.725Z,3.07
2018-08-08T23:46:06.115Z,3.60
2018-08-08T23:48:34.506Z,3.33
2018-08-08T23:51:02.976Z,3.33
2018-08-08T23:53:31.366Z,3.40
2018-08-08T23:55:59.799Z,3.40
2018-08-08T23:58:28.200Z,3.30
